Share

Allen, SD

12:24 PM MDT on April 23, 2014 (GMT -0600)
NonFedAWOS MARTINMUNC SD US SUPERAWOS (MK9V6) Elev 3292 ft | 43.17 °N, 101.71 °W | Change Station

Current weather conditions updated 29 minutes ago

Mostly Cloudy
Mostly Cloudy
64 °F
Feels Like 64 °F
N
22
Wind Variable Wind from WSW
Gusts 30.0 mph
Sunrise 5:52 AM
Sunset 7:40 PM
Moon Waning Crescent

Today is forecast to be Much Cooler than yesterday.

Pressure 29.53 in
Visibility 10.0 miles
Clouds Mostly Cloudy 10000 ft
Mostly Cloudy 11000 ft
Dew Point 39 °F
Humidity 39%
Rainfall -999.00 in
Snow Depth Not available.
UV 5 out of 16
Pollen 11.30 out of 12
Air Quality Not available.
Flu Activity Sporadic
METAR KIEN 231752Z AUTO 28014G22KT 10SM BKN100 BKN110 18/M01 A2959 RMK AO2 PK WND 27027/1723 SLP999 T01781011 10178 20128 53016

More Conditions Fewer Conditions

Pressure 29.53 in
Visibility 10.0 miles
Clouds Mostly Cloudy 10000 ft
Mostly Cloudy 11000 ft
Dew Point 39 °F
Humidity 39%
Rainfall -999.00 in
Snow Depth Not available.
UV 5 out of 16
Pollen 11.30 out of 12
Air Quality Not available.
Flu Activity Sporadic
METAR KIEN 231752Z AUTO 28014G22KT 10SM BKN100 BKN110 18/M01 A2959 RMK AO2 PK WND 27027/1723 SLP999 T01781011 10178 20128 53016

More Conditions Fewer Conditions

10-Day Weather Forecast

Almanac

Astronomy

Apr. 23, 2014 Rise Set
Actual Time 5:52 AM MDT 7:40 PM MDT
Civil Twilight 5:22 AM MDT 8:10 PM MDT
Nautical Twilight 4:45 AM MDT 8:47 PM MDT
Astronomical Twilight 4:05 AM MDT 9:27 PM MDT
Moon 2:36 AM MDT 1:41 PM MDT
Length of Visible Light 14h 48m
Length of Day
13h 47m
Tomorrow will be 2m 42s longer.
Waning Crescent, 34% of the Moon is Illuminated
Today
Waning Crescent
Apr 29
New
May 6
First Quarter
May 14
Full
May 21
Last Quarter

Today's Extremes

State Highs State Lows

Community

  • Stunning Sunrise
    Stunning Sunrise
  • spring flowers
    spring flowers
  • Earth Day Spectrum Ove' Blue
    Earth Day Spectrum Ove' Blue
  • BARN B&W
    BARN B&W
  • April Sunset
    April Sunset

WunderPhotos

Upload Photos

1,704,362 photos uploaded!

WunderBlogs® & News

Nearby

Snow Depth

Station Depth Elevation
North Rapid Creek 11 in 6130 ft
Blind Park 12 in 6890 ft

Coastal Water Temperatures

Place Temperature
No Stations Reporting

Earthquake Activity

City Distance Mag. Time & Date
No recent earthquake activity has been reported nearby.
Minimum magnitude displayed is 2.5.

Nearby Weather Stations

Station Location Temp. Dew Point Humidity Wind Precip. Elev Updated Type
NonFedAWOS MARTINMUNC , Martin, SD 64 °F 39 °F 39% WSW  at  22 mph 0.00 in / hr 3292 ft 11:55 AM MDT MADIS
HADS LITTLE WHITE RIVER NEAR MARTIN 5 SD, Martin, SD 67 °F - - North  at  - 0.00 in / hr 3044 ft 11:00 AM MDT MADIS
The Bunkhouse, Martin, SD 66.0 °F 40 °F 38% WNW  at  10.1 mph 0.00 in / hr 3038 ft 12:23 PM MDT Rapid Fire

Show More Stations Show Fewer Stations

What do you think?

We're not finished. Please let us know what you like, what you don't like, and what you are still missing.